Time;durP1;ratioP1;P1;durP2;ratioP2;P2;SDS_P1;SDS_P2;PMS_P1;PMS_P2;Temp;Humidity;BMP_temperature;BMP_pressure;BME280_temperature;BME280_humidity;BME280_pressure;Samples;Min_cycle;Max_cycle;Signal;HPM_P1;HPM_P2
2020/12/07 00:01:48;;;;;;;3.83;1.10;;;22.90;52.90;;;;;;4976132;28;20358;-47
2020/12/07 00:04:15;;;;;;;1.98;1.23;;;22.90;53.00;;;;;;4975903;28;20051;-47
2020/12/07 00:06:42;;;;;;;2.70;1.13;;;23.00;53.20;;;;;;4976150;28;20494;-46
2020/12/07 00:09:10;;;;;;;3.20;1.33;;;23.00;53.00;;;;;;4975544;28;20490;-47
2020/12/07 00:11:38;;;;;;;3.33;1.13;;;23.00;53.00;;;;;;4975249;28;20498;-47
2020/12/07 00:14:06;;;;;;;2.20;0.95;;;23.10;52.90;;;;;;4975309;28;20375;-48
2020/12/07 00:16:33;;;;;;;2.83;1.17;;;23.10;52.80;;;;;;4975923;28;20443;-47
2020/12/07 00:19:00;;;;;;;4.05;1.30;;;23.20;52.70;;;;;;4975264;28;20494;-47
2020/12/07 00:21:27;;;;;;;2.13;0.90;;;23.20;52.80;;;;;;4975323;28;20486;-47
2020/12/07 00:23:55;;;;;;;2.50;1.23;;;23.20;52.70;;;;;;4975234;28;20522;-47
2020/12/07 00:26:22;;;;;;;7.43;1.45;;;23.30;53.20;;;;;;4975330;28;20474;-47
2020/12/07 00:28:49;;;;;;;3.78;1.23;;;23.30;52.50;;;;;;4974833;28;20558;-47
2020/12/07 00:31:17;;;;;;;1.73;0.80;;;23.30;52.50;;;;;;4975513;28;20501;-47
2020/12/07 00:33:44;;;;;;;2.17;0.98;;;23.30;52.30;;;;;;4975103;28;20479;-46
2020/12/07 00:36:11;;;;;;;2.13;1.00;;;23.30;52.30;;;;;;4975399;28;20459;-46
2020/12/07 00:38:38;;;;;;;2.08;0.80;;;23.40;52.30;;;;;;4974904;28;20495;-46
2020/12/07 00:41:06;;;;;;;3.17;1.10;;;23.30;52.20;;;;;;4975163;28;20465;-47
2020/12/07 00:43:33;;;;;;;2.13;1.35;;;23.40;52.30;;;;;;4974910;28;20038;-47
2020/12/07 00:46:00;;;;;;;1.92;0.90;;;23.50;52.00;;;;;;4974881;28;20467;-45
2020/12/07 00:48:28;;;;;;;2.75;1.02;;;23.50;52.10;;;;;;4975289;28;20474;-47
2020/12/07 00:50:55;;;;;;;4.63;1.20;;;23.50;51.90;;;;;;4976232;28;20070;-46
2020/12/07 00:53:23;;;;;;;2.15;0.80;;;23.50;52.00;;;;;;4975760;28;20023;-46
2020/12/07 00:55:50;;;;;;;5.90;1.15;;;23.60;51.70;;;;;;4975837;28;20042;-47
2020/12/07 00:58:19;;;;;;;3.40;0.85;;;23.60;51.80;;;;;;4974748;28;20362;-47
2020/12/07 01:00:48;;;;;;;2.28;0.95;;;23.60;51.70;;;;;;4975386;28;20046;-47
2020/12/07 01:03:15;;;;;;;1.67;0.93;;;23.70;51.80;;;;;;4974872;28;20493;-46
2020/12/07 01:05:43;;;;;;;1.25;0.60;;;23.70;51.60;;;;;;4975323;28;20045;-47
2020/12/07 01:08:11;;;;;;;2.60;0.80;;;23.70;51.50;;;;;;4974774;28;20458;-47
2020/12/07 01:10:38;;;;;;;3.20;0.98;;;23.80;51.50;;;;;;4975118;28;20574;-47
2020/12/07 01:13:06;;;;;;;2.15;1.23;;;23.70;51.40;;;;;;4974414;28;20099;-47
2020/12/07 01:15:33;;;;;;;2.60;1.08;;;23.80;51.30;;;;;;4975036;28;20447;-47
2020/12/07 01:18:00;;;;;;;4.32;1.20;;;23.80;51.30;;;;;;4974137;28;20441;-47
2020/12/07 01:20:27;;;;;;;3.60;1.10;;;23.80;51.20;;;;;;4974218;28;20447;-48
2020/12/07 01:22:55;;;;;;;1.80;0.82;;;23.90;51.30;;;;;;4957324;28;20521;-47
2020/12/07 01:25:22;;;;;;;1.48;0.80;;;23.90;50.90;;;;;;4974472;28;20444;-48
2020/12/07 01:27:49;;;;;;;1.20;0.77;;;23.90;50.80;;;;;;4973881;28;20035;-47
2020/12/07 01:30:17;;;;;;;0.98;0.65;;;24.00;51.10;;;;;;4974274;28;20340;-46
2020/12/07 01:32:44;;;;;;;1.50;0.93;;;24.00;50.90;;;;;;4974156;28;20518;-48
2020/12/07 01:35:12;;;;;;;2.00;0.73;;;24.00;50.70;;;;;;4974401;28;20107;-47
2020/12/07 01:37:39;;;;;;;1.88;0.95;;;24.00;50.70;;;;;;4974144;28;20463;-47
2020/12/07 01:40:07;;;;;;;1.80;0.80;;;24.00;50.60;;;;;;4974631;28;20435;-47
2020/12/07 01:42:34;;;;;;;1.65;0.70;;;24.00;50.20;;;;;;4974078;28;20485;-47
2020/12/07 01:45:02;;;;;;;3.25;1.13;;;24.10;50.50;;;;;;4974101;28;20038;-47
2020/12/07 01:47:29;;;;;;;2.95;1.30;;;24.00;50.40;;;;;;4974182;28;20475;-47
2020/12/07 01:49:57;;;;;;;2.55;0.80;;;24.00;50.20;;;;;;4975239;28;20451;-48
2020/12/07 01:52:26;;;;;;;1.25;0.70;;;24.00;50.20;;;;;;4975161;28;20412;-47
2020/12/07 01:54:53;;;;;;;3.85;1.00;;;24.00;50.30;;;;;;4974625;28;20070;-47
2020/12/07 01:57:22;;;;;;;0.80;0.70;;;24.10;50.40;;;;;;4974727;28;20455;-48
2020/12/07 01:59:49;;;;;;;2.13;0.73;;;24.20;50.30;;;;;;4975110;28;20447;-47
2020/12/07 02:02:17;;;;;;;2.80;1.00;;;24.20;50.50;;;;;;4973878;28;20482;-48
2020/12/07 02:04:46;;;;;;;2.78;0.90;;;24.40;50.30;;;;;;4957454;28;20482;-47
2020/12/07 02:07:19;;;;;;;2.70;0.65;;;24.40;50.10;;;;;;4974346;28;20490;-47
2020/12/07 02:09:47;;;;;;;1.58;0.98;;;24.40;49.90;;;;;;4976186;28;20467;-48
2020/12/07 02:12:14;;;;;;;2.42;1.00;;;24.50;49.80;;;;;;4980058;28;20481;-47
2020/12/07 02:14:41;;;;;;;1.40;0.90;;;24.60;49.70;;;;;;4980121;28;20468;-47
2020/12/07 02:17:09;;;;;;;2.65;1.08;;;24.60;49.70;;;;;;4979780;28;20543;-48
2020/12/07 02:19:36;;;;;;;2.47;1.27;;;24.60;49.50;;;;;;4979771;28;20099;-48
2020/12/07 02:22:04;;;;;;;1.23;0.70;;;24.60;49.60;;;;;;4979906;28;20414;-48
2020/12/07 02:24:31;;;;;;;1.63;0.75;;;24.60;49.50;;;;;;4980546;28;20056;-48
2020/12/07 02:26:59;;;;;;;1.90;0.95;;;24.60;49.40;;;;;;4979686;28;20459;-47
2020/12/07 02:29:30;;;;;;;2.03;0.80;;;24.70;49.50;;;;;;4980383;28;20043;-48
2020/12/07 02:32:14;;;;;;;1.98;1.02;;;24.70;49.30;;;;;;4979810;28;20403;-47
2020/12/07 02:34:43;;;;;;;1.20;0.80;;;24.80;49.70;;;;;;4963363;28;20406;-47
2020/12/07 02:37:11;;;;;;;1.30;0.80;;;24.80;49.20;;;;;;4979961;28;20496;-47
2020/12/07 02:39:38;;;;;;;8.00;0.90;;;24.80;49.20;;;;;;4979989;28;20498;-48
2020/12/07 02:42:07;;;;;;;3.15;1.10;;;24.80;49.10;;;;;;4979968;28;20359;-46
2020/12/07 02:44:35;;;;;;;2.78;0.80;;;24.80;49.00;;;;;;4979951;28;20039;-47
2020/12/07 02:47:02;;;;;;;1.02;0.70;;;24.80;48.90;;;;;;4979653;28;20446;-47
2020/12/07 02:49:29;;;;;;;0.90;0.60;;;24.80;48.90;;;;;;4981001;28;20075;-47
2020/12/07 02:51:57;;;;;;;1.05;0.63;;;24.80;49.10;;;;;;4980535;28;20467;-47
2020/12/07 02:54:25;;;;;;;1.17;0.85;;;24.80;49.00;;;;;;4981185;28;20505;-46
2020/12/07 02:56:53;;;;;;;2.03;0.70;;;24.90;48.80;;;;;;4980625;28;20443;-47
2020/12/07 02:59:20;;;;;;;2.38;1.00;;;24.90;49.40;;;;;;4981061;28;20031;-47
2020/12/07 03:01:47;;;;;;;2.65;1.25;;;24.80;48.80;;;;;;4980123;28;20525;-47
2020/12/07 03:04:15;;;;;;;1.38;0.90;;;24.80;49.00;;;;;;4979532;28;20034;-47
2020/12/07 03:06:42;;;;;;;1.40;0.82;;;24.80;48.90;;;;;;4979797;28;20568;-47
2020/12/07 03:09:12;;;;;;;1.23;0.57;;;24.80;49.10;;;;;;4962643;28;20351;-47
2020/12/07 03:11:40;;;;;;;1.67;0.98;;;24.80;49.20;;;;;;4979341;28;20034;-47
2020/12/07 03:14:07;;;;;;;3.00;1.25;;;24.70;49.10;;;;;;4979361;28;20482;-47
2020/12/07 03:16:36;;;;;;;1.55;0.68;;;24.70;49.30;;;;;;4979730;28;20467;-46
2020/12/07 03:19:04;;;;;;;1.50;0.60;;;24.70;49.40;;;;;;4979368;28;20534;-46
2020/12/07 03:21:31;;;;;;;2.60;1.13;;;24.80;49.30;;;;;;4976486;28;20497;-47
2020/12/07 03:23:59;;;;;;;1.58;0.63;;;24.80;49.10;;;;;;4976652;28;20451;-47
2020/12/07 03:26:28;;;;;;;1.85;0.77;;;24.70;48.90;;;;;;4975993;28;20485;-47
2020/12/07 03:28:55;;;;;;;3.28;1.00;;;24.70;48.80;;;;;;4976297;28;20485;-47
2020/12/07 03:31:22;;;;;;;2.50;1.05;;;24.60;48.90;;;;;;4976146;28;20463;-48
2020/12/07 03:33:49;;;;;;;3.33;0.80;;;24.50;49.20;;;;;;4976145;28;20546;-48
2020/12/07 03:36:17;;;;;;;4.90;0.80;;;24.60;49.60;;;;;;4975894;28;20054;-47
2020/12/07 03:38:44;;;;;;;1.35;0.60;;;24.70;49.60;;;;;;4975864;28;20367;-48
2020/12/07 03:41:11;;;;;;;1.98;1.33;;;24.80;49.80;;;;;;4975274;28;20499;-48
2020/12/07 03:43:39;;;;;;;1.30;0.73;;;24.90;49.70;;;;;;4975738;28;20486;-49
2020/12/07 03:46:06;;;;;;;1.98;1.00;;;24.90;49.80;;;;;;4975809;28;20467;-48
2020/12/07 03:48:33;;;;;;;2.75;1.08;;;25.00;49.60;;;;;;4976295;28;20064;-48
2020/12/07 03:51:01;;;;;;;1.05;0.80;;;25.10;49.90;;;;;;4975660;28;20475;-48
2020/12/07 03:53:39;;;;;;;2.40;1.15;;;25.20;49.70;;;;;;4975880;28;20455;-47
2020/12/07 03:56:08;;;;;;;1.35;0.80;;;25.30;49.60;;;;;;4975477;28;20471;-48
2020/12/07 03:58:35;;;;;;;0.95;0.75;;;25.50;49.60;;;;;;4975297;28;20533;-48
2020/12/07 04:01:04;;;;;;;1.88;0.60;;;25.60;49.30;;;;;;4975906;28;20497;-48
2020/12/07 04:03:32;;;;;;;0.98;0.68;;;25.70;49.10;;;;;;4975428;28;20459;-48
2020/12/07 04:09:02;;;;;;;1.02;0.60;;;25.70;49.60;;;;;;4915865;29;20123;-48
2020/12/07 04:11:29;;;;;;;1.10;0.63;;;25.80;48.70;;;;;;4916337;29;20354;-48
2020/12/07 04:13:57;;;;;;;1.95;0.70;;;25.80;48.80;;;;;;4916280;29;20531;-48
2020/12/07 04:16:28;;;;;;;2.97;0.70;;;25.80;48.70;;;;;;4915686;29;20541;-48
2020/12/07 04:18:55;;;;;;;1.30;0.82;;;25.80;48.60;;;;;;4915702;29;20039;-48
2020/12/07 04:21:22;;;;;;;1.50;0.80;;;25.80;48.70;;;;;;4915891;29;20549;-47
2020/12/07 04:23:50;;;;;;;1.02;0.80;;;25.80;48.70;;;;;;4916012;29;20485;-47
2020/12/07 04:26:18;;;;;;;3.53;1.15;;;25.90;48.50;;;;;;4915704;29;20495;-47
2020/12/07 04:28:45;;;;;;;3.22;0.98;;;25.80;48.20;;;;;;4915587;29;20491;-47
2020/12/07 04:31:12;;;;;;;0.80;0.80;;;25.70;48.50;;;;;;4915738;29;20036;-46
2020/12/07 04:33:40;;;;;;;1.73;0.70;;;25.70;48.50;;;;;;4915490;29;20456;-47
2020/12/07 04:36:07;;;;;;;0.98;0.85;;;25.80;48.50;;;;;;4915857;29;20460;-47
2020/12/07 04:38:34;;;;;;;1.60;0.80;;;25.80;48.40;;;;;;4916142;29;20039;-48
2020/12/07 04:41:04;;;;;;;1.48;0.85;;;25.80;48.20;;;;;;4915425;29;20528;-48
2020/12/07 04:43:33;;;;;;;1.15;0.77;;;25.90;48.40;;;;;;4958700;28;20501;-48
2020/12/07 04:46:00;;;;;;;1.17;0.70;;;25.90;48.40;;;;;;4974881;28;20576;-48
2020/12/07 04:48:29;;;;;;;1.25;0.80;;;25.90;48.10;;;;;;4975606;28;20471;-48
2020/12/07 04:50:57;;;;;;;2.75;0.95;;;25.90;48.20;;;;;;4975839;28;20379;-48
2020/12/07 04:53:27;;;;;;;5.03;1.10;;;25.80;47.70;;;;;;4959437;28;20489;-48
2020/12/07 04:55:58;;;;;;;4.60;0.80;;;25.70;47.70;;;;;;4975986;28;20455;-48
2020/12/07 04:58:29;;;;;;;3.78;1.13;;;25.60;47.70;;;;;;4975602;28;20462;-48
2020/12/07 05:00:58;;;;;;;2.28;1.00;;;25.50;47.80;;;;;;4975606;28;20039;-48
2020/12/07 05:03:25;;;;;;;7.28;1.30;;;25.50;47.80;;;;;;4974978;28;20462;-48
2020/12/07 05:05:59;;;;;;;1.58;1.20;;;25.50;47.90;;;;;;4974634;28;20038;-48
2020/12/07 05:08:28;;;;;;;1.40;1.08;;;25.40;47.90;;;;;;4974755;28;20463;-48
2020/12/07 05:11:16;;;;;;;2.30;0.90;;;25.40;47.70;;;;;;4973845;28;20070;-48
2020/12/07 05:13:58;;;;;;;3.08;0.88;;;25.30;48.10;;;;;;4975006;28;20455;-48
2020/12/07 05:16:27;;;;;;;2.15;0.93;;;25.30;48.10;;;;;;4974472;28;20411;-47
2020/12/07 05:18:55;;;;;;;5.10;0.82;;;25.30;48.10;;;;;;4957568;28;20540;-47
2020/12/07 05:21:22;;;;;;;1.52;0.77;;;25.20;48.30;;;;;;4974379;28;20429;-46
2020/12/07 05:23:54;;;;;;;3.25;0.70;;;25.30;48.40;;;;;;4957483;28;20414;-47
2020/12/07 05:26:22;;;;;;;2.38;1.00;;;25.30;48.40;;;;;;4974068;28;20474;-47
2020/12/07 05:28:53;;;;;;;5.22;0.90;;;25.30;48.50;;;;;;4973933;28;20050;-48
2020/12/07 05:31:22;;;;;;;2.72;0.90;;;25.20;48.50;;;;;;4974152;28;20034;-47
2020/12/07 05:33:50;;;;;;;0.73;0.60;;;25.20;48.30;;;;;;4974220;28;20471;-48
2020/12/07 05:36:18;;;;;;;0.73;0.70;;;25.30;48.60;;;;;;4974368;28;20408;-48
2020/12/07 05:38:46;;;;;;;1.20;0.88;;;25.30;48.60;;;;;;4974025;28;20546;-48
2020/12/07 05:41:15;;;;;;;3.05;0.77;;;25.40;48.80;;;;;;4974399;28;20451;-47
2020/12/07 05:43:43;;;;;;;1.70;0.85;;;25.40;48.70;;;;;;4973857;28;20459;-48
2020/12/07 05:46:11;;;;;;;2.75;0.50;;;25.40;48.70;;;;;;4974176;28;20485;-48
2020/12/07 05:48:43;;;;;;;3.80;0.80;;;25.40;48.70;;;;;;4974704;28;20367;-48
2020/12/07 05:51:13;;;;;;;2.15;0.65;;;25.50;48.70;;;;;;4975206;28;20532;-47
2020/12/07 05:53:42;;;;;;;1.15;0.73;;;25.50;48.70;;;;;;4942155;28;20053;-48
2020/12/07 05:56:10;;;;;;;2.35;0.85;;;25.60;48.90;;;;;;4974534;28;20050;-47
2020/12/07 05:58:40;;;;;;;1.65;0.85;;;25.60;48.70;;;;;;4975257;28;20358;-47
2020/12/07 06:01:11;;;;;;;2.10;0.82;;;25.60;48.40;;;;;;4974451;28;20487;-47
2020/12/07 06:03:42;;;;;;;2.22;1.05;;;25.50;48.20;;;;;;4973873;28;20467;-46
2020/12/07 06:06:09;;;;;;;;;;;25.40;48.20;;;;;;4974975;28;20471;-47
2020/12/07 06:08:39;;;;;;;2.25;1.20;;;25.40;48.50;;;;;;4974243;28;20365;-47
2020/12/07 06:11:10;;;;;;;4.07;1.40;;;25.20;48.40;;;;;;4973401;28;20054;-47
2020/12/07 06:13:38;;;;;;;;;;;25.10;48.80;;;;;;4974009;28;20483;-48
2020/12/07 06:16:07;;;;;;;3.38;1.23;;;25.10;49.10;;;;;;4973785;28;20366;-47
2020/12/07 06:18:36;;;;;;;1.60;1.20;;;25.20;48.90;;;;;;4973521;28;20489;-48
2020/12/07 06:21:05;;;;;;;2.95;1.73;;;25.10;49.00;;;;;;4973579;28;20478;-48
2020/12/07 06:23:42;;;;;;;2.80;1.70;;;25.10;49.20;;;;;;4973906;28;20509;-48
2020/12/07 06:26:12;;;;;;;4.18;1.58;;;25.00;49.40;;;;;;4957577;28;20533;-47
2020/12/07 06:28:47;;;;;;;1.73;1.50;;;25.00;49.60;;;;;;4973271;28;20348;-48
2020/12/07 06:31:25;;;;;;;3.42;1.63;;;25.10;49.80;;;;;;4973750;28;20736;-47
2020/12/07 06:33:54;;;;;;;2.15;1.42;;;25.10;49.60;;;;;;4973389;28;20502;-48
2020/12/07 06:36:27;;;;;;;2.47;1.38;;;25.10;49.80;;;;;;4973579;28;20027;-48
2020/12/07 06:39:13;;;;;;;3.42;2.00;;;25.10;50.00;;;;;;4973186;28;20493;-47
2020/12/07 06:41:46;;;;;;;2.97;1.90;;;25.10;50.00;;;;;;4973625;28;20026;-47
2020/12/07 06:44:19;;;;;;;4.53;1.80;;;25.20;50.10;;;;;;4973882;28;20451;-47
2020/12/07 06:47:04;;;;;;;4.57;1.98;;;25.20;50.10;;;;;;4972981;28;20481;-47
2020/12/07 06:49:49;;;;;;;4.88;1.90;;;25.20;50.20;;;;;;4957385;28;20379;-48
2020/12/07 06:52:19;;;;;;;3.20;1.60;;;25.20;50.20;;;;;;4973569;28;20451;-47
2020/12/07 06:55:08;;;;;;;4.35;1.63;;;25.20;50.30;;;;;;4974656;28;20443;-47
2020/12/07 06:57:39;;;;;;;2.95;2.03;;;25.20;50.30;;;;;;4976765;28;20463;-48
2020/12/07 07:00:08;;;;;;;3.45;1.85;;;25.30;50.40;;;;;;4977891;28;20408;-48
2020/12/07 07:02:38;;;;;;;2.20;1.50;;;25.30;50.20;;;;;;4976179;28;20482;-48
2020/12/07 07:05:07;;;;;;;1.65;1.38;;;25.30;50.20;;;;;;4977127;28;20529;-46
2020/12/07 07:07:35;;;;;;;4.72;2.08;;;25.20;51.20;;;;;;4976178;28;20034;-47
2020/12/07 07:10:05;;;;;;;2.47;1.52;;;25.30;50.50;;;;;;4976146;28;20501;-47
2020/12/07 07:12:33;;;;;;;4.57;1.83;;;25.20;50.40;;;;;;4976542;28;20451;-47
2020/12/07 07:15:00;;;;;;;3.25;1.75;;;25.20;50.40;;;;;;4976152;28;20483;-46
2020/12/07 07:17:30;;;;;;;3.08;1.80;;;25.20;50.50;;;;;;4959445;28;20359;-46
2020/12/07 07:19:59;;;;;;;2.28;1.80;;;25.30;50.60;;;;;;4975900;28;20532;-45
2020/12/07 07:22:27;;;;;;;3.42;2.33;;;25.20;50.50;;;;;;4976018;28;20474;-46
2020/12/07 07:30:23;;;;;;;2.35;1.80;;;25.10;51.30;;;;;;4976235;28;20510;-46
2020/12/07 07:32:53;;;;;;;2.67;1.95;;;25.10;51.50;;;;;;4975764;28;20475;-46
2020/12/07 07:35:23;;;;;;;4.53;2.17;;;25.10;51.60;;;;;;4976289;28;20467;-46
2020/12/07 07:37:51;;;;;;;2.90;2.03;;;25.10;51.50;;;;;;4975981;28;20375;-46
2020/12/07 07:40:21;;;;;;;4.65;1.60;;;25.10;51.90;;;;;;4976233;28;20761;-47
2020/12/07 07:43:02;;;;;;;1.90;1.70;;;25.10;51.90;;;;;;4975830;28;20482;-46
2020/12/07 07:45:37;;;;;;;2.10;1.83;;;25.10;52.20;;;;;;4975671;28;20475;-48
2020/12/07 08:15:55;;;;;;;4.22;1.65;;;25.10;52.80;;;;;;4976036;28;20015;-47
2020/12/07 08:18:34;;;;;;;4.88;1.85;;;25.00;52.70;;;;;;4975639;28;20569;-45
2020/12/07 08:21:03;;;;;;;2.58;1.20;;;25.00;52.80;;;;;;4958856;28;20561;-47
2020/12/07 08:23:32;;;;;;;2.42;1.73;;;25.00;52.90;;;;;;4975044;28;20554;-45
2020/12/07 08:26:04;;;;;;;3.00;1.27;;;25.00;52.70;;;;;;4975577;28;20546;-46
2020/12/07 08:28:40;;;;;;;2.72;1.60;;;25.00;52.80;;;;;;4974911;28;20483;-46
2020/12/07 08:31:17;;;;;;;5.03;1.70;;;24.90;52.80;;;;;;4974946;28;20046;-46
2020/12/07 08:34:07;;;;;;;4.72;1.75;;;24.90;52.60;;;;;;4975327;28;20027;-45
2020/12/07 08:36:35;;;;;;;3.60;1.15;;;24.80;52.70;;;;;;4958356;28;20429;-47
2020/12/07 08:39:05;;;;;;;3.13;1.80;;;24.80;52.70;;;;;;4974905;28;20494;-42
2020/12/07 08:41:34;;;;;;;2.45;1.65;;;24.80;52.70;;;;;;4975144;28;20451;-45
2020/12/07 08:44:02;;;;;;;2.55;1.67;;;24.70;52.70;;;;;;4975379;28;20490;-46
2020/12/07 08:46:32;;;;;;;3.42;1.63;;;24.80;52.70;;;;;;4975351;28;20046;-46
2020/12/07 08:49:00;;;;;;;5.32;1.88;;;24.70;53.30;;;;;;4975830;28;20445;-45
2020/12/07 08:51:32;;;;;;;4.18;1.88;;;24.70;52.60;;;;;;4975865;28;20447;-46
2020/12/07 08:53:59;;;;;;;2.97;1.60;;;24.70;52.60;;;;;;4975857;28;20478;-46
2020/12/07 08:56:27;;;;;;;4.30;1.77;;;24.70;52.70;;;;;;4975809;28;20463;-44
2020/12/07 08:58:55;;;;;;;6.70;1.70;;;24.60;52.70;;;;;;4975645;28;20493;-46
2020/12/07 09:01:23;;;;;;;4.07;1.60;;;24.60;52.70;;;;;;4975361;28;20609;-45
2020/12/07 09:03:51;;;;;;;2.50;1.92;;;24.60;52.60;;;;;;4974685;28;20509;-43
2020/12/07 09:06:20;;;;;;;3.10;1.75;;;24.50;52.60;;;;;;4975152;28;20022;-44
2020/12/07 09:08:47;;;;;;;2.30;1.30;;;24.50;52.80;;;;;;4975338;28;20045;-46
2020/12/07 09:11:18;;;;;;;3.00;1.60;;;24.40;52.90;;;;;;4975257;28;20454;-45
2020/12/07 09:13:46;;;;;;;4.40;1.63;;;24.40;52.90;;;;;;4975162;28;20429;-44
2020/12/07 09:16:14;;;;;;;2.95;1.42;;;24.40;52.90;;;;;;4975188;28;20485;-46
2020/12/07 09:18:42;;;;;;;2.47;1.52;;;24.40;52.80;;;;;;4957035;28;20459;-46
2020/12/07 09:21:10;;;;;;;1.60;1.27;;;24.40;52.60;;;;;;4974027;28;20458;-45
2020/12/07 09:23:38;;;;;;;1.95;1.48;;;24.40;52.80;;;;;;4974325;28;20467;-44
2020/12/07 09:26:07;;;;;;;1.95;1.17;;;24.40;52.70;;;;;;4974262;28;20463;-46
2020/12/07 09:28:38;;;;;;;2.17;1.10;;;24.40;52.70;;;;;;4974554;28;20477;-47
2020/12/07 09:31:07;;;;;;;3.17;1.52;;;24.30;52.70;;;;;;4973990;28;20410;-47
2020/12/07 09:33:37;;;;;;;3.72;1.40;;;24.30;52.70;;;;;;4956755;28;20378;-44
2020/12/07 09:36:05;;;;;;;3.60;1.45;;;24.30;52.60;;;;;;4973988;28;20537;-46
2020/12/07 09:38:33;;;;;;;3.22;1.45;;;24.30;52.60;;;;;;4974386;28;20174;-46
2020/12/07 09:41:01;;;;;;;2.65;1.30;;;24.20;52.70;;;;;;4973946;28;20494;-46
2020/12/07 09:43:28;;;;;;;2.50;1.60;;;24.20;52.70;;;;;;4974594;28;20455;-45
2020/12/07 09:45:56;;;;;;;2.15;1.50;;;24.20;52.60;;;;;;4974185;28;20485;-47
2020/12/07 09:48:23;;;;;;;2.70;1.70;;;24.20;52.60;;;;;;4974739;28;20525;-47
2020/12/07 09:50:50;;;;;;;1.23;1.08;;;24.20;52.50;;;;;;4975588;28;20380;-47
2020/12/07 09:53:19;;;;;;;2.08;1.45;;;24.20;52.60;;;;;;4975309;28;20359;-46
2020/12/07 09:55:46;;;;;;;3.45;1.50;;;24.20;52.50;;;;;;4974784;28;20482;-46
2020/12/07 09:58:15;;;;;;;3.25;1.45;;;24.20;52.40;;;;;;4974616;28;20034;-46
2020/12/07 10:00:42;;;;;;;2.15;1.48;;;24.20;52.30;;;;;;4974748;28;20470;-47
2020/12/07 10:03:10;;;;;;;2.17;1.20;;;24.20;52.30;;;;;;4973638;28;20533;-46
2020/12/07 10:05:37;;;;;;;1.38;1.05;;;24.20;52.40;;;;;;4974479;28;20470;-47
2020/12/07 10:08:08;;;;;;;3.63;1.55;;;24.20;52.40;;;;;;4974211;28;20518;-48
2020/12/07 10:10:35;;;;;;;1.30;1.10;;;24.10;52.20;;;;;;4974628;28;20035;-47
2020/12/07 10:13:03;;;;;;;2.25;1.55;;;24.00;52.10;;;;;;4975177;28;20515;-47
2020/12/07 10:15:30;;;;;;;1.65;1.30;;;23.80;52.10;;;;;;4957846;28;20475;-47
2020/12/07 10:17:57;;;;;;;2.38;1.38;;;23.80;52.30;;;;;;4974318;28;20439;-47
2020/12/07 10:20:25;;;;;;;2.05;1.30;;;23.70;52.60;;;;;;4973575;28;20466;-47
2020/12/07 10:22:52;;;;;;;1.10;1.00;;;23.60;52.70;;;;;;4974667;28;20517;-48
2020/12/07 10:25:19;;;;;;;2.42;1.30;;;23.60;52.80;;;;;;4973493;28;20546;-48
2020/12/07 10:27:46;;;;;;;1.65;1.10;;;23.50;52.80;;;;;;4973383;28;20483;-49
2020/12/07 10:30:13;;;;;;;4.32;2.03;;;23.50;53.10;;;;;;4974325;28;20440;-47
2020/12/07 10:32:41;;;;;;;1.48;1.10;;;23.50;53.10;;;;;;4976973;28;20332;-47
2020/12/07 10:35:08;;;;;;;2.72;1.45;;;23.50;53.30;;;;;;4977153;28;20533;-47
2020/12/07 10:37:36;;;;;;;3.35;2.00;;;23.50;53.20;;;;;;4977404;28;20451;-47
2020/12/07 10:40:03;;;;;;;2.00;1.13;;;23.30;53.10;;;;;;4976740;28;20517;-47
2020/12/07 10:42:30;;;;;;;2.50;1.00;;;23.30;53.20;;;;;;4976907;28;20470;-47
2020/12/07 10:44:57;;;;;;;2.67;1.20;;;23.30;53.30;;;;;;4976763;28;20464;-48
2020/12/07 10:47:25;;;;;;;2.00;1.13;;;23.30;53.60;;;;;;4977553;28;20477;-47
2020/12/07 10:49:53;;;;;;;2.05;1.00;;;23.30;53.50;;;;;;4978793;28;20504;-46
2020/12/07 10:52:22;;;;;;;2.05;1.02;;;23.30;53.40;;;;;;4977649;28;20045;-45
2020/12/07 10:54:50;;;;;;;1.40;0.95;;;23.20;53.40;;;;;;4976954;28;20463;-46
2020/12/07 10:57:17;;;;;;;2.13;1.10;;;23.30;53.60;;;;;;4977876;28;20475;-47
2020/12/07 10:59:44;;;;;;;2.58;1.27;;;23.20;53.50;;;;;;4977358;28;20027;-47
2020/12/07 11:02:12;;;;;;;1.95;1.05;;;23.20;53.60;;;;;;4976801;28;20463;-47
2020/12/07 11:04:39;;;;;;;1.15;0.90;;;23.20;53.60;;;;;;4976997;28;20481;-48
2020/12/07 11:09:30;;;;;;;3.45;1.80;;;23.20;52.70;;;;;;5112271;27;21189;-68
2020/12/07 11:12:01;;;;;;;2.80;1.00;;;23.00;51.70;;;;;;5115326;27;20019;-65
2020/12/07 11:14:28;;;;;;;2.65;1.30;;;22.70;51.80;;;;;;5095000;27;20028;-65
2020/12/07 11:16:57;;;;;;;2.97;1.27;;;22.40;52.20;;;;;;5115567;27;20023;-66
2020/12/07 11:19:24;;;;;;;4.28;1.30;;;22.10;52.80;;;;;;5114932;27;20042;-63
2020/12/07 11:21:51;;;;;;;3.25;1.20;;;21.80;53.50;;;;;;5112384;27;20050;-66
2020/12/07 11:24:18;;;;;;;2.75;1.30;;;21.60;54.50;;;;;;5108637;27;20031;-64
2020/12/07 11:26:47;;;;;;;2.95;1.20;;;21.60;55.20;;;;;;5113876;27;20020;-66
2020/12/07 11:29:14;;;;;;;3.88;1.13;;;21.60;55.60;;;;;;5112263;27;20066;-65
2020/12/07 11:31:45;;;;;;;2.90;1.60;;;21.50;55.90;;;;;;5116128;27;20030;-66
2020/12/07 11:34:12;;;;;;;1.98;1.10;;;21.50;56.50;;;;;;5113781;27;22363;-66
2020/12/07 11:36:40;;;;;;;4.20;1.30;;;21.40;56.80;;;;;;5113867;27;20035;-65
2020/12/07 11:39:44;;;;;;;2.15;1.17;;;21.40;57.00;;;;;;5117537;27;20110;-67
2020/12/07 11:44:29;;;;;;;1.45;1.17;;;21.40;57.80;;;;;;5115916;27;20515;-65
2020/12/07 11:47:01;;;;;;;3.97;1.35;;;21.40;58.00;;;;;;5112041;27;20035;-66
2020/12/07 11:49:27;;;;;;;;;;;21.40;58.30;;;;;;5117704;27;20035;-67
2020/12/07 11:51:55;;;;;;;2.70;1.08;;;21.40;58.60;;;;;;5111719;27;19916;-66
2020/12/07 11:54:22;;;;;;;1.40;1.05;;;21.40;59.00;;;;;;5116449;27;20031;-67
2020/12/07 11:56:49;;;;;;;1.42;1.23;;;21.30;58.60;;;;;;5115072;27;20031;-66
2020/12/07 11:59:17;;;;;;;2.15;1.88;;;21.30;58.90;;;;;;5115621;27;20031;-66
2020/12/07 12:01:44;;;;;;;1.58;1.17;;;21.30;58.90;;;;;;5096656;27;20256;-67
2020/12/07 12:04:11;;;;;;;2.40;1.40;;;21.30;58.90;;;;;;5112316;27;20031;-65
2020/12/07 12:06:38;;;;;;;2.08;1.58;;;21.30;59.00;;;;;;5117095;27;20084;-66
2020/12/07 12:09:13;;;;;;;2.45;1.48;;;21.20;59.00;;;;;;5112071;27;20039;-67
2020/12/07 12:11:43;;;;;;;1.98;1.15;;;21.20;59.10;;;;;;5117151;27;20110;-65
2020/12/07 12:14:11;;;;;;;2.38;1.23;;;21.30;59.10;;;;;;5092411;27;20073;-67
2020/12/07 12:16:39;;;;;;;0.93;0.93;;;21.20;59.00;;;;;;5114994;27;20410;-66
2020/12/07 12:19:11;;;;;;;2.15;1.20;;;21.30;59.10;;;;;;5110969;27;20626;-66
2020/12/07 12:21:41;;;;;;;2.10;1.27;;;21.20;59.00;;;;;;5097155;27;20027;-68
2020/12/07 12:24:08;;;;;;;1.55;0.98;;;21.20;59.00;;;;;;5102268;27;20019;-68
2020/12/07 12:26:36;;;;;;;2.80;1.10;;;21.20;59.00;;;;;;5095901;28;20030;-67
2020/12/07 12:29:05;;;;;;;1.45;1.25;;;21.20;59.10;;;;;;5100957;28;20097;-68
2020/12/07 12:31:32;;;;;;;2.25;1.38;;;21.20;59.00;;;;;;5095209;27;20070;-67
2020/12/07 12:33:59;;;;;;;1.90;1.20;;;21.20;59.10;;;;;;5100141;27;20061;-68
2020/12/07 12:36:28;;;;;;;1.75;1.00;;;21.20;59.00;;;;;;5098145;28;20046;-68
2020/12/07 12:38:56;;;;;;;2.53;1.17;;;21.10;59.00;;;;;;5102719;27;20027;-68
2020/12/07 12:41:25;;;;;;;2.25;1.50;;;21.10;59.00;;;;;;5102097;27;20019;-67
2020/12/07 12:43:52;;;;;;;1.48;1.05;;;21.10;59.10;;;;;;5097290;28;20106;-66
2020/12/07 12:46:19;;;;;;;1.65;1.00;;;21.10;59.00;;;;;;5101338;28;20492;-67
2020/12/07 12:48:46;;;;;;;1.42;0.90;;;21.10;59.00;;;;;;5094320;28;20548;-66
2020/12/07 12:51:13;;;;;;;2.10;1.35;;;21.10;58.90;;;;;;5101120;28;20193;-68
2020/12/07 12:53:41;;;;;;;1.30;1.05;;;21.00;58.90;;;;;;5098202;27;20031;-67
2020/12/07 12:56:09;;;;;;;1.75;1.17;;;21.10;59.40;;;;;;5102218;27;20031;-66
2020/12/07 12:58:37;;;;;;;2.05;1.17;;;21.10;59.00;;;;;;5101878;27;20031;-66
2020/12/07 13:01:05;;;;;;;1.13;0.80;;;21.00;59.00;;;;;;5097740;27;20030;-66
2020/12/07 13:03:33;;;;;;;1.60;0.90;;;21.10;58.90;;;;;;5102211;27;20035;-67
2020/12/07 13:06:00;;;;;;;1.00;0.90;;;21.00;58.90;;;;;;5098022;27;20132;-67
2020/12/07 13:08:27;;;;;;;1.20;0.90;;;21.00;59.00;;;;;;5101845;28;20027;-66
2020/12/07 13:10:54;;;;;;;1.30;0.95;;;21.00;59.00;;;;;;5096935;28;20050;-66
2020/12/07 13:13:21;;;;;;;1.58;0.93;;;21.00;59.00;;;;;;5101833;27;20071;-66
2020/12/07 13:16:01;;;;;;;1.25;0.90;;;21.00;59.00;;;;;;5101766;27;20027;-66
2020/12/07 13:18:34;;;;;;;1.23;1.00;;;21.00;58.90;;;;;;5083208;28;20038;-67
2020/12/07 13:21:10;;;;;;;1.70;1.13;;;21.00;58.90;;;;;;5099866;27;20031;-65
2020/12/07 13:26:40;;;;;;;2.78;1.35;;;20.90;58.80;;;;;;5100624;28;20024;-67
2020/12/07 13:29:07;;;;;;;;;;;20.90;58.80;;;;;;5100833;27;20808;-66
2020/12/07 13:31:43;;;;;;;1.00;0.77;;;20.90;59.00;;;;;;5081183;28;19922;-65
2020/12/07 13:34:10;;;;;;;1.00;0.90;;;20.90;59.00;;;;;;5098888;27;20033;-67
2020/12/07 13:36:37;;;;;;;3.17;1.00;;;20.90;59.00;;;;;;5099577;28;20106;-67
2020/12/07 13:39:04;;;;;;;1.70;0.98;;;20.90;59.00;;;;;;5096338;27;20514;-67
2020/12/07 13:41:31;;;;;;;1.30;0.90;;;20.90;59.00;;;;;;5100897;27;20048;-67